Time;durP1;ratioP1;P1;durP2;ratioP2;P2;SDS_P1;SDS_P2;PMS_P1;PMS_P2;Temp;Humidity;BMP_temperature;BMP_pressure;BME280_temperature;BME280_humidity;BME280_pressure;Samples;Min_cycle;Max_cycle;Signal;HPM_P1;HPM_P2
2022/04/14 00:00:46;;;;;;;4.35;3.47;;;;;;;-143.76;100.00;61248.72;5004895;28;20496;-72
2022/04/14 00:03:11;;;;;;;7.05;4.57;;;;;;;-143.76;100.00;61248.72;5005800;28;20872;-72
2022/04/14 00:05:37;;;;;;;5.30;3.73;;;;;;;-143.76;100.00;61248.72;5005021;28;20715;-72
2022/04/14 00:08:02;;;;;;;4.80;3.70;;;;;;;-143.76;100.00;61248.72;5005835;28;20205;-72
2022/04/14 00:10:28;;;;;;;7.17;4.40;;;;;;;-143.76;100.00;61248.72;5001789;28;20202;-72
2022/04/14 00:12:53;;;;;;;7.47;4.43;;;;;;;-143.76;100.00;61248.72;5005544;28;20571;-72
2022/04/14 00:15:18;;;;;;;5.17;3.80;;;;;;;-143.76;100.00;61248.72;5005075;28;20634;-72
2022/04/14 00:17:44;;;;;;;4.33;3.87;;;;;;;-143.76;100.00;61248.72;5003815;28;20218;-72
2022/04/14 00:20:10;;;;;;;4.67;4.17;;;;;;;-143.76;100.00;61248.72;5001384;28;20209;-72
2022/04/14 00:22:36;;;;;;;7.50;3.97;;;;;;;-143.76;100.00;61248.72;5005613;28;20207;-72
2022/04/14 00:25:03;;;;;;;6.28;4.10;;;;;;;-143.76;100.00;61248.72;5006234;28;20329;-72
2022/04/14 00:27:29;;;;;;;4.72;4.32;;;;;;;-143.76;100.00;61248.72;5004044;28;20280;-72
2022/04/14 00:29:54;;;;;;;4.63;4.20;;;;;;;-143.76;100.00;61248.72;5002604;28;20309;-73
2022/04/14 00:32:19;;;;;;;8.90;4.60;;;;;;;-143.76;100.00;61248.72;4987365;28;20497;-72
2022/04/14 00:34:45;;;;;;;6.50;4.37;;;;;;;-143.76;100.00;61248.72;5003591;28;20728;-72
2022/04/14 00:37:10;;;;;;;3.97;3.10;;;;;;;-143.76;100.00;61248.72;5004600;28;20207;-72
2022/04/14 00:39:39;;;;;;;8.13;3.60;;;;;;;-143.76;100.00;61248.72;5003588;28;20537;-73
2022/04/14 00:42:11;;;;;;;5.57;3.58;;;;;;;-143.76;100.00;61248.72;5006048;28;20558;-72
2022/04/14 00:44:38;;;;;;;7.82;4.53;;;;;;;-143.76;100.00;61248.72;5003837;28;20227;-72
2022/04/14 00:47:05;;;;;;;5.53;3.72;;;;;;;-143.76;100.00;61248.72;5005635;28;20215;-73
2022/04/14 00:49:30;;;;;;;4.78;3.40;;;;;;;-143.76;100.00;61248.72;5005344;28;20203;-72
2022/04/14 00:52:00;;;;;;;4.57;3.47;;;;;;;-143.76;100.00;61248.72;5004765;28;20199;-72
2022/04/14 00:54:25;;;;;;;6.38;4.32;;;;;;;-143.76;100.00;61248.72;4999723;28;20273;-72
2022/04/14 00:56:51;;;;;;;3.93;3.53;;;;;;;-143.76;100.00;61248.72;5003108;28;20207;-72
2022/04/14 00:59:16;;;;;;;3.77;3.37;;;;;;;-143.76;100.00;61248.72;5003395;28;20201;-72
2022/04/14 01:01:42;;;;;;;6.93;3.90;;;;;;;-143.76;100.00;61248.72;5002601;28;20277;-72
2022/04/14 01:04:10;;;;;;;4.93;3.80;;;;;;;-143.76;100.00;61248.72;5004510;28;20317;-72
2022/04/14 01:06:38;;;;;;;9.70;4.18;;;;;;;-143.76;100.00;61248.72;5004959;28;20748;-72
2022/04/14 01:09:18;;;;;;;5.18;3.65;;;;;;;-143.76;100.00;61248.72;5004941;28;20206;-72
2022/04/14 01:11:47;;;;;;;10.75;4.28;;;;;;;-143.76;100.00;61248.72;5003824;28;20234;-72
2022/04/14 01:14:20;;;;;;;7.60;4.40;;;;;;;-143.76;100.00;61248.72;5003509;28;20567;-71
2022/04/14 01:16:45;;;;;;;6.95;4.22;;;;;;;-143.76;100.00;61248.72;5003938;28;20209;-72
2022/04/14 01:19:11;;;;;;;4.80;3.60;;;;;;;-143.76;100.00;61248.72;5003406;28;20210;-72
2022/04/14 01:21:41;;;;;;;7.10;4.20;;;;;;;-143.76;100.00;61248.72;5000165;28;20459;-72
2022/04/14 01:24:07;;;;;;;4.20;3.80;;;;;;;-143.76;100.00;61248.72;5000534;28;20222;-72
2022/04/14 01:26:36;;;;;;;7.25;4.43;;;;;;;-143.76;100.00;61248.72;5004592;28;20232;-72
2022/04/14 01:29:05;;;;;;;5.00;4.50;;;;;;;-143.76;100.00;61248.72;5002305;28;20215;-72
2022/04/14 01:31:30;;;;;;;4.05;3.50;;;;;;;-143.76;100.00;61248.72;5002205;28;20206;-72
2022/04/14 01:33:56;;;;;;;6.17;3.83;;;;;;;-143.76;100.00;61248.72;5001619;28;20780;-72
2022/04/14 01:36:21;;;;;;;6.43;3.33;;;;;;;-143.76;100.00;61248.72;5004690;28;20223;-72
2022/04/14 01:38:47;;;;;;;5.27;4.87;;;;;;;-143.76;100.00;61248.72;5012356;28;20563;-72
2022/04/14 01:41:12;;;;;;;6.63;4.10;;;;;;;-143.76;100.00;61248.72;5014944;28;20210;-72
2022/04/14 01:43:38;;;;;;;5.10;3.97;;;;;;;-143.76;100.00;61248.72;5012621;28;20587;-72
2022/04/14 01:46:08;;;;;;;7.10;4.03;;;;;;;-143.76;100.00;61248.72;5008715;28;20231;-72
2022/04/14 01:48:38;;;;;;;6.00;4.10;;;;;;;-143.76;100.00;61248.72;5000197;28;20402;-72
2022/04/14 01:51:04;;;;;;;5.10;4.35;;;;;;;-143.76;100.00;61248.72;5002404;28;20215;-72
2022/04/14 01:53:30;;;;;;;6.85;4.20;;;;;;;-143.76;100.00;61248.72;5002770;28;20199;-72
2022/04/14 01:55:55;;;;;;;8.53;4.60;;;;;;;-143.76;100.00;61248.72;4992363;28;20757;-72
2022/04/14 01:58:21;;;;;;;9.63;4.83;;;;;;;-143.76;100.00;61248.72;5003589;28;20218;-72
2022/04/14 02:00:46;;;;;;;6.10;4.70;;;;;;;-143.76;100.00;61248.72;5004296;28;20428;-72
2022/04/14 02:03:11;;;;;;;4.97;4.50;;;;;;;-143.76;100.00;61248.72;5003060;28;20223;-72
2022/04/14 02:05:37;;;;;;;5.00;4.37;;;;;;;-143.76;100.00;61248.72;5005676;28;20218;-72
2022/04/14 02:08:02;;;;;;;4.60;3.87;;;;;;;-143.76;100.00;61248.72;5006894;28;20211;-72
2022/04/14 02:10:27;;;;;;;6.50;3.87;;;;;;;-143.76;100.00;61248.72;5007706;28;20286;-72
2022/04/14 02:12:53;;;;;;;5.63;5.03;;;;;;;-143.76;100.00;61248.72;5007710;28;20943;-72
2022/04/14 02:15:19;;;;;;;6.73;5.37;;;;;;;-143.76;100.00;61248.72;5006894;28;20277;-72
2022/04/14 02:17:44;;;;;;;3.60;3.30;;;;;;;-143.76;100.00;61248.72;5007722;28;20217;-72
2022/04/14 02:20:10;;;;;;;6.63;3.67;;;;;;;-143.76;100.00;61248.72;5008935;28;20293;-72
2022/04/14 02:22:40;;;;;;;6.00;3.60;;;;;;;-143.76;100.00;61248.72;5008799;28;20280;-72
2022/04/14 02:25:06;;;;;;;4.57;3.72;;;;;;;-143.76;100.00;61248.72;5007117;28;20473;-72
2022/04/14 02:27:32;;;;;;;4.72;3.85;;;;;;;-143.76;100.00;61248.72;4951534;28;20858;-72
2022/04/14 02:29:57;;;;;;;7.40;4.03;;;;;;;-143.76;100.00;61248.72;4967759;28;20212;-72
2022/04/14 02:32:22;;;;;;;6.53;4.60;;;;;;;-143.76;100.00;61248.72;4964574;28;20548;-72
2022/04/14 02:34:48;;;;;;;5.17;4.50;;;;;;;-143.76;100.00;61248.72;4962762;28;21108;-72
2022/04/14 02:37:13;;;;;;;8.03;4.30;;;;;;;-143.76;100.00;61248.72;4963010;28;20240;-72
2022/04/14 02:39:39;;;;;;;7.07;4.10;;;;;;;-143.76;100.00;61248.72;4965183;28;20687;-72
2022/04/14 02:42:05;;;;;;;5.93;4.22;;;;;;;-143.76;100.00;61248.72;4964560;28;20222;-72
2022/04/14 02:44:31;;;;;;;6.33;3.67;;;;;;;-143.76;100.00;61248.72;4965329;28;20236;-72
2022/04/14 02:46:56;;;;;;;9.90;4.50;;;;;;;-143.76;100.00;61248.72;4961494;28;20506;-72
2022/04/14 02:49:23;;;;;;;7.00;3.57;;;;;;;-143.76;100.00;61248.72;4966962;28;20235;-72
2022/04/14 02:51:49;;;;;;;4.10;3.70;;;;;;;-143.76;100.00;61248.72;4966288;28;20224;-71
2022/04/14 02:54:17;;;;;;;7.28;4.70;;;;;;;-143.76;100.00;61248.72;4966460;28;20246;-72
2022/04/14 02:56:43;;;;;;;3.88;3.38;;;;;;;-143.76;100.00;61248.72;4964588;28;20204;-72
2022/04/14 02:59:08;;;;;;;5.40;4.07;;;;;;;-143.76;100.00;61248.72;4965273;28;20219;-72
2022/04/14 03:01:33;;;;;;;3.70;3.30;;;;;;;-143.76;100.00;61248.72;4963340;28;20636;-72
2022/04/14 03:03:59;;;;;;;7.37;3.80;;;;;;;-143.76;100.00;61248.72;4963017;28;20243;-72
2022/04/14 03:06:24;;;;;;;4.77;3.50;;;;;;;-143.76;100.00;61248.72;4966086;28;20867;-71
2022/04/14 03:08:49;;;;;;;7.03;4.70;;;;;;;-143.76;100.00;61248.72;4963815;28;20343;-72
2022/04/14 03:11:15;;;;;;;10.50;5.13;;;;;;;-143.76;100.00;61248.72;4965531;28;20712;-71
2022/04/14 03:13:42;;;;;;;5.27;3.93;;;;;;;-143.76;100.00;61248.72;4963100;28;20204;-71
2022/04/14 03:16:08;;;;;;;7.78;3.17;;;;;;;-143.76;100.00;61248.72;4964906;28;20436;-71
2022/04/14 03:18:33;;;;;;;4.53;3.85;;;;;;;-143.76;100.00;61248.72;4937535;28;20239;-71
2022/04/14 03:21:00;;;;;;;7.10;3.60;;;;;;;-143.76;100.00;61248.72;3200929;28;10001038;-72
2022/04/14 03:23:26;;;;;;;8.63;4.13;;;;;;;-143.76;100.00;61248.72;4963226;28;20482;-72
2022/04/14 03:25:52;;;;;;;4.63;4.23;;;;;;;-143.76;100.00;61248.72;4965185;28;20787;-73
2022/04/14 03:28:17;;;;;;;6.45;3.72;;;;;;;-143.76;100.00;61248.72;4963030;28;20208;-72
2022/04/14 03:30:43;;;;;;;4.60;4.20;;;;;;;-143.76;100.00;61248.72;4964424;28;20220;-72
2022/04/14 03:33:08;;;;;;;8.38;4.78;;;;;;;-143.76;100.00;61248.72;4962669;28;20956;-72
2022/04/14 03:35:34;;;;;;;10.00;4.40;;;;;;;-143.76;100.00;61248.72;4962949;28;20291;-72
2022/04/14 03:37:59;;;;;;;20.50;5.77;;;;;;;-143.76;100.00;61248.72;4959561;28;20195;-72
2022/04/14 03:40:25;;;;;;;7.13;4.33;;;;;;;-143.76;100.00;61248.72;4962131;28;20691;-72
2022/04/14 03:42:50;;;;;;;11.63;3.90;;;;;;;-143.76;100.00;61248.72;4958059;28;20227;-72
2022/04/14 03:45:15;;;;;;;6.17;3.90;;;;;;;-143.76;100.00;61248.72;4961544;28;20930;-72
2022/04/14 03:47:41;;;;;;;9.00;5.30;;;;;;;-143.76;100.00;61248.72;4960914;28;20212;-72
2022/04/14 03:50:07;;;;;;;5.90;4.37;;;;;;;-143.76;100.00;61248.72;4965334;28;20526;-72
2022/04/14 03:52:32;;;;;;;6.20;3.90;;;;;;;-143.76;100.00;61248.72;4960505;28;20208;-72
2022/04/14 03:54:58;;;;;;;8.67;4.67;;;;;;;-143.76;100.00;61248.72;4960700;28;20891;-72
2022/04/14 03:57:24;;;;;;;6.10;3.70;;;;;;;-143.76;100.00;61248.72;4952133;28;20755;-72
2022/04/14 03:59:49;;;;;;;9.10;4.60;;;;;;;-143.76;100.00;61248.72;4963117;28;20204;-72
2022/04/14 04:02:15;;;;;;;10.33;4.70;;;;;;;-143.76;100.00;61248.72;4963410;28;20271;-72
2022/04/14 04:04:41;;;;;;;6.87;4.70;;;;;;;-143.76;100.00;61248.72;4986138;28;20231;-72
2022/04/14 04:07:07;;;;;;;4.53;4.13;;;;;;;-143.76;100.00;61248.72;4983512;28;20570;-72
2022/04/14 04:09:33;;;;;;;6.53;4.13;;;;;;;-143.76;100.00;61248.72;4983780;28;20737;-72
2022/04/14 04:12:00;;;;;;;4.25;3.67;;;;;;;-143.76;100.00;61248.72;4983437;28;20214;-72
2022/04/14 04:14:25;;;;;;;4.75;3.65;;;;;;;-143.76;100.00;61248.72;4985714;28;20258;-72
2022/04/14 04:16:50;;;;;;;4.57;4.13;;;;;;;-143.76;100.00;61248.72;4980902;28;20885;-72
2022/04/14 04:19:16;;;;;;;4.57;3.57;;;;;;;-143.76;100.00;61248.72;4965754;28;20207;-72
2022/04/14 04:21:41;;;;;;;4.43;3.50;;;;;;;-143.76;100.00;61248.72;4984022;28;20759;-72
2022/04/14 04:24:07;;;;;;;9.37;5.33;;;;;;;-143.76;100.00;61248.72;4982222;28;20235;-72
2022/04/14 04:26:32;;;;;;;5.27;3.90;;;;;;;-143.76;100.00;61248.72;4979456;28;20211;-72
2022/04/14 04:28:58;;;;;;;4.10;3.50;;;;;;;-143.76;100.00;61248.72;4982417;28;20207;-72
2022/04/14 04:31:23;;;;;;;4.37;4.00;;;;;;;-143.76;100.00;61248.72;4986586;28;20491;-72
2022/04/14 04:33:51;;;;;;;6.63;4.50;;;;;;;-143.76;100.00;61248.72;4983710;28;20502;-72
2022/04/14 04:36:19;;;;;;;5.90;3.45;;;;;;;-143.76;100.00;61248.72;4986452;28;20227;-73
2022/04/14 04:38:44;;;;;;;5.53;3.90;;;;;;;-143.76;100.00;61248.72;4985092;28;20743;-72
2022/04/14 04:41:10;;;;;;;6.70;3.70;;;;;;;-143.76;100.00;61248.72;4987600;28;20293;-72
2022/04/14 04:43:36;;;;;;;5.40;3.80;;;;;;;-143.76;100.00;61248.72;4982097;28;20204;-73
2022/04/14 04:46:01;;;;;;;5.73;3.80;;;;;;;-143.76;100.00;61248.72;4980053;28;20380;-73
2022/04/14 04:48:27;;;;;;;7.27;4.10;;;;;;;-143.76;100.00;61248.72;4979267;28;20211;-73
2022/04/14 04:50:52;;;;;;;5.33;4.37;;;;;;;-143.76;100.00;61248.72;4980427;28;20660;-72
2022/04/14 04:53:18;;;;;;;8.67;4.87;;;;;;;-143.76;100.00;61248.72;4980551;28;20279;-72
2022/04/14 04:55:43;;;;;;;8.20;4.50;;;;;;;-143.76;100.00;61248.72;4980679;28;20373;-73
2022/04/14 04:58:09;;;;;;;8.23;4.50;;;;;;;-143.76;100.00;61248.72;4979623;28;20203;-72
2022/04/14 05:00:35;;;;;;;5.87;5.27;;;;;;;-143.76;100.00;61248.72;4976871;28;20202;-73
2022/04/14 05:03:00;;;;;;;6.17;4.43;;;;;;;-143.76;100.00;61248.72;4983224;28;20219;-73
2022/04/14 05:05:25;;;;;;;5.80;4.17;;;;;;;-143.76;100.00;61248.72;4982860;28;20751;-73
2022/04/14 05:07:51;;;;;;;4.57;4.13;;;;;;;-143.76;100.00;61248.72;4985295;28;20294;-72
2022/04/14 05:10:17;;;;;;;4.93;4.50;;;;;;;-143.76;100.00;61248.72;4985683;28;20216;-72
2022/04/14 05:12:43;;;;;;;10.13;3.80;;;;;;;-143.76;100.00;61248.72;4984668;28;20203;-72
2022/04/14 05:15:09;;;;;;;5.33;3.90;;;;;;;-143.76;100.00;61248.72;4983708;28;20231;-72
2022/04/14 05:17:34;;;;;;;10.43;4.60;;;;;;;-143.76;100.00;61248.72;4984684;28;20467;-72
2022/04/14 05:19:59;;;;;;;5.87;4.30;;;;;;;-143.76;100.00;61248.72;4978893;28;20462;-72
2022/04/14 05:22:25;;;;;;;9.60;4.97;;;;;;;-143.76;100.00;61248.72;4978589;28;20215;-73
2022/04/14 05:24:50;;;;;;;6.77;3.30;;;;;;;-143.76;100.00;61248.72;4979269;28;20326;-73
2022/04/14 05:27:16;;;;;;;8.83;4.33;;;;;;;-143.76;100.00;61248.72;4978051;28;20235;-73
2022/04/14 05:29:41;;;;;;;6.57;4.17;;;;;;;-143.76;100.00;61248.72;4978038;28;20200;-72
2022/04/14 05:32:07;;;;;;;7.85;5.05;;;;;;;-143.76;100.00;61248.72;4976819;28;20496;-72
2022/04/14 05:34:33;;;;;;;10.33;5.07;;;;;;;-143.76;100.00;61248.72;4977519;28;20243;-73
2022/04/14 05:36:58;;;;;;;4.97;4.30;;;;;;;-143.76;100.00;61248.72;4978365;28;20616;-72
2022/04/14 05:39:24;;;;;;;5.80;4.53;;;;;;;-143.76;100.00;61248.72;4974259;28;20722;-73
2022/04/14 05:41:49;;;;;;;5.17;3.83;;;;;;;-143.76;100.00;61248.72;4975140;28;20703;-73
2022/04/14 05:44:16;;;;;;;4.20;3.53;;;;;;;-143.76;100.00;61248.72;4978234;28;20777;-73
2022/04/14 05:46:42;;;;;;;6.00;4.55;;;;;;;-143.76;100.00;61248.72;4978565;28;20657;-74
2022/04/14 05:49:07;;;;;;;4.77;3.73;;;;;;;-143.76;100.00;61248.72;4975465;28;20207;-75
2022/04/14 05:51:33;;;;;;;3.43;3.03;;;;;;;-143.76;100.00;61248.72;4978749;28;20223;-75
2022/04/14 05:53:58;;;;;;;5.10;4.10;;;;;;;-143.76;100.00;61248.72;4979423;28;20203;-75
2022/04/14 05:56:23;;;;;;;5.57;3.97;;;;;;;-143.76;100.00;61248.72;4976645;28;20235;-75
2022/04/14 05:58:49;;;;;;;4.10;3.70;;;;;;;-143.76;100.00;61248.72;4975437;28;20214;-75
2022/04/14 06:01:14;;;;;;;4.27;3.70;;;;;;;-143.76;100.00;61248.72;4976421;28;20216;-75
2022/04/14 06:03:40;;;;;;;5.70;3.93;;;;;;;-143.76;100.00;61248.72;4978225;28;20314;-75
2022/04/14 06:06:06;;;;;;;10.65;4.43;;;;;;;-143.76;100.00;61248.72;4979183;28;20720;-74
2022/04/14 06:08:32;;;;;;;7.83;4.67;;;;;;;-143.76;100.00;61248.72;4973529;28;20274;-74
2022/04/14 06:10:57;;;;;;;8.50;4.60;;;;;;;-143.76;100.00;61248.72;4979649;28;20995;-74
2022/04/14 06:13:23;;;;;;;6.13;4.60;;;;;;;-143.76;100.00;61248.72;4975430;28;20200;-74
2022/04/14 06:15:48;;;;;;;6.80;4.00;;;;;;;-143.76;100.00;61248.72;4977735;28;20737;-74
2022/04/14 06:18:14;;;;;;;7.30;3.73;;;;;;;-143.76;100.00;61248.72;4975600;28;20219;-74
2022/04/14 06:20:39;;;;;;;7.07;3.90;;;;;;;-143.76;100.00;61248.72;4976807;28;20329;-74
2022/04/14 06:23:04;;;;;;;4.33;3.47;;;;;;;-143.76;100.00;61248.72;4977988;28;20346;-73
2022/04/14 06:25:30;;;;;;;5.53;3.90;;;;;;;-143.76;100.00;61248.72;4977299;28;20243;-73
2022/04/14 06:27:56;;;;;;;4.87;4.03;;;;;;;-143.76;100.00;61248.72;4978611;28;20213;-74
2022/04/14 06:30:21;;;;;;;5.97;4.23;;;;;;;-143.76;100.00;61248.72;4977519;28;20463;-73
2022/04/14 06:33:16;;;;;;;6.47;4.13;;;;;;;-143.76;100.00;61248.72;4975148;28;20579;-73
2022/04/14 06:35:43;;;;;;;10.20;4.82;;;;;;;-143.76;100.00;61248.72;4963910;28;20247;-73
2022/04/14 06:38:08;;;;;;;7.80;4.37;;;;;;;-143.76;100.00;61248.72;4977246;28;20222;-73
2022/04/14 06:40:34;;;;;;;5.77;5.00;;;;;;;-143.76;100.00;61248.72;4978294;28;20701;-73
2022/04/14 06:43:00;;;;;;;9.20;4.77;;;;;;;-143.76;100.00;61248.72;4977757;28;20525;-73
2022/04/14 06:45:25;;;;;;;5.40;3.70;;;;;;;-143.76;100.00;61248.72;4979177;28;20328;-74
2022/04/14 06:47:51;;;;;;;5.47;4.20;;;;;;;-143.76;100.00;61248.72;4979455;28;20561;-73
2022/04/14 06:50:16;;;;;;;8.30;4.60;;;;;;;-143.76;100.00;61248.72;4981113;28;20203;-73
2022/04/14 06:52:41;;;;;;;5.73;3.70;;;;;;;-143.76;100.00;61248.72;4981401;28;20817;-73
2022/04/14 06:55:08;;;;;;;11.27;4.90;;;;;;;-143.76;100.00;61248.72;4984011;28;20249;-74
2022/04/14 06:57:34;;;;;;;7.30;4.63;;;;;;;-143.76;100.00;61248.72;4980990;28;20216;-74
2022/04/14 06:59:59;;;;;;;6.30;4.20;;;;;;;-143.76;100.00;61248.72;4981101;28;20751;-74
2022/04/14 07:02:25;;;;;;;8.40;4.77;;;;;;;-143.76;100.00;61248.72;4976040;28;20523;-74
2022/04/14 07:04:50;;;;;;;8.60;4.03;;;;;;;-143.76;100.00;61248.72;4982215;28;20432;-74
2022/04/14 07:07:15;;;;;;;4.83;4.20;;;;;;;-143.76;100.00;61248.72;4980085;28;20208;-74
2022/04/14 07:09:41;;;;;;;5.13;3.70;;;;;;;-143.76;100.00;61248.72;4979973;28;20940;-75
2022/04/14 07:12:07;;;;;;;10.10;4.00;;;;;;;-143.76;100.00;61248.72;4979585;28;20205;-75
2022/04/14 07:14:33;;;;;;;4.88;3.50;;;;;;;-143.76;100.00;61248.72;4962153;28;20220;-75
2022/04/14 07:16:58;;;;;;;7.53;4.30;;;;;;;-143.76;100.00;61248.72;4979497;28;20252;-75
2022/04/14 07:19:24;;;;;;;5.07;4.43;;;;;;;-143.76;100.00;61248.72;4980082;28;20213;-75
2022/04/14 07:21:50;;;;;;;7.20;4.70;;;;;;;-143.76;100.00;61248.72;4978974;28;20364;-75
2022/04/14 07:24:16;;;;;;;5.15;3.95;;;;;;;-143.76;100.00;61248.72;4978313;28;20226;-75
2022/04/14 07:26:41;;;;;;;5.10;4.60;;;;;;;-143.76;100.00;61248.72;4981518;28;20209;-74
2022/04/14 07:29:07;;;;;;;6.63;4.27;;;;;;;-143.76;100.00;61248.72;4979371;28;20366;-73
2022/04/14 07:31:33;;;;;;;4.97;3.90;;;;;;;-143.76;100.00;61248.72;4980013;28;20476;-73
2022/04/14 07:33:59;;;;;;;5.27;3.97;;;;;;;-143.76;100.00;61248.72;4980396;28;20624;-73
2022/04/14 07:36:25;;;;;;;7.07;3.80;;;;;;;-143.76;100.00;61248.72;4978265;28;20224;-73
2022/04/14 07:38:51;;;;;;;12.10;5.47;;;;;;;-143.76;100.00;61248.72;4978913;28;20462;-73
2022/04/14 07:41:16;;;;;;;5.03;4.50;;;;;;;-143.76;100.00;61248.72;4978607;28;20873;-73
2022/04/14 07:43:41;;;;;;;7.73;3.90;;;;;;;-143.76;100.00;61248.72;4962848;28;20651;-73
2022/04/14 07:46:07;;;;;;;5.70;4.23;;;;;;;-143.76;100.00;61248.72;4978280;28;20881;-73
2022/04/14 07:48:32;;;;;;;5.63;4.70;;;;;;;-143.76;100.00;61248.72;4978333;28;20642;-73
2022/04/14 07:51:00;;;;;;;7.10;4.13;;;;;;;-143.76;100.00;61248.72;4980737;28;20721;-73
2022/04/14 07:53:25;;;;;;;6.37;4.13;;;;;;;-143.76;100.00;61248.72;4979045;28;20208;-73
2022/04/14 07:55:51;;;;;;;4.77;4.30;;;;;;;-143.76;100.00;61248.72;4980818;28;21263;-73
2022/04/14 07:58:16;;;;;;;119.10;19.73;;;;;;;-143.76;100.00;61248.72;4980381;28;20753;-73
2022/04/14 08:00:42;;;;;;;20.70;6.60;;;;;;;-143.76;100.00;61248.72;4978659;28;20220;-73
2022/04/14 08:03:09;;;;;;;37.40;8.17;;;;;;;-143.76;100.00;61248.72;4979984;28;20232;-73
2022/04/14 08:05:35;;;;;;;50.13;10.07;;;;;;;-143.76;100.00;61248.72;4978973;28;20293;-73
2022/04/14 08:08:05;;;;;;;19.30;7.27;;;;;;;-143.76;100.00;61248.72;4980136;28;21072;-74
2022/04/14 08:10:31;;;;;;;7.50;5.20;;;;;;;-143.76;100.00;61248.72;4980610;28;20987;-72
2022/04/14 08:12:57;;;;;;;8.60;5.70;;;;;;;-143.76;100.00;61248.72;4978115;28;20462;-72
2022/04/14 08:15:22;;;;;;;8.83;6.97;;;;;;;-143.76;100.00;61248.72;4981454;28;20471;-71
2022/04/14 08:17:49;;;;;;;8.00;6.10;;;;;;;-143.76;100.00;61248.72;4978989;28;20461;-75
2022/04/14 08:20:16;;;;;;;10.50;6.37;;;;;;;-143.76;100.00;61248.72;4978301;28;20285;-71
2022/04/14 08:22:58;;;;;;;6.83;5.93;;;;;;;-143.76;100.00;61248.72;4979175;28;20441;-72
2022/04/14 08:25:31;;;;;;;12.97;9.13;;;;;;;-143.76;100.00;61248.72;4980207;28;20482;-71
2022/04/14 08:27:58;;;;;;;9.50;7.80;;;;;;;-143.76;100.00;61248.72;4980166;28;20863;-72
2022/04/14 08:30:25;;;;;;;13.30;8.57;;;;;;;-143.76;100.00;61248.72;4980915;28;20466;-72
2022/04/14 08:32:52;;;;;;;16.20;12.13;;;;;;;-143.76;100.00;61248.72;4978884;28;20726;-72
2022/04/14 08:35:19;;;;;;;13.40;8.83;;;;;;;-143.76;100.00;61248.72;4979051;28;20556;-71
2022/04/14 08:37:45;;;;;;;10.03;8.30;;;;;;;-143.76;100.00;61248.72;4978442;28;20947;-71
2022/04/14 08:40:13;;;;;;;13.67;10.00;;;;;;;-143.76;100.00;61248.72;4978668;28;21192;-71
2022/04/14 08:42:49;;;;;;;11.20;9.10;;;;;;;-143.76;100.00;61248.72;4978253;28;20859;-71
2022/04/14 08:45:16;;;;;;;12.50;9.10;;;;;;;-143.76;100.00;61248.72;4975166;28;20486;-71
2022/04/14 08:47:41;;;;;;;15.30;8.77;;;;;;;-143.76;100.00;61248.72;4976401;28;20605;-72
2022/04/14 08:50:13;;;;;;;10.93;9.80;;;;;;;-143.76;100.00;61248.72;4978424;28;21079;-73
2022/04/14 08:52:40;;;;;;;8.90;8.00;;;;;;;-143.76;100.00;61248.72;4978176;28;20257;-72
2022/04/14 08:55:11;;;;;;;10.30;8.40;;;;;;;-143.76;100.00;61248.72;4976331;28;20863;-73
2022/04/14 08:57:37;;;;;;;10.57;8.97;;;;;;;-143.76;100.00;61248.72;4978350;28;20852;-73
2022/04/14 09:00:07;;;;;;;11.60;8.77;;;;;;;-143.76;100.00;61248.72;4978311;28;20554;-72
2022/04/14 09:02:34;;;;;;;13.82;10.70;;;;;;;-143.76;100.00;61248.72;4977226;28;20503;-73
2022/04/14 09:05:00;;;;;;;14.90;11.40;;;;;;;-143.76;100.00;61248.72;4978229;28;20267;-73
2022/04/14 09:07:26;;;;;;;13.73;10.10;;;;;;;-143.76;100.00;61248.72;4978600;28;20547;-74
2022/04/14 09:09:52;;;;;;;12.50;10.50;;;;;;;-143.76;100.00;61248.72;4981116;28;21307;-72
2022/04/14 09:12:18;;;;;;;12.40;11.10;;;;;;;-143.76;100.00;61248.72;4978186;28;20528;-73
2022/04/14 09:14:45;;;;;;;15.00;12.07;;;;;;;-143.76;100.00;61248.72;4979555;28;20234;-73
2022/04/14 09:17:10;;;;;;;12.67;10.53;;;;;;;-143.76;100.00;61248.72;4977547;28;20457;-73
2022/04/14 09:19:37;;;;;;;14.60;11.50;;;;;;;-143.76;100.00;61248.72;4979100;28;20455;-72
2022/04/14 09:22:04;;;;;;;15.80;12.60;;;;;;;-143.76;100.00;61248.72;4978801;28;20239;-73
2022/04/14 09:24:49;;;;;;;24.17;15.43;;;;;;;-143.76;100.00;61248.72;4976308;28;20491;-73
2022/04/14 09:27:37;;;;;;;15.23;13.70;;;;;;;-143.76;100.00;61248.72;4978581;28;20469;-72
2022/04/14 09:30:05;;;;;;;19.50;13.50;;;;;;;-143.76;100.00;61248.72;4978941;28;20466;-72
2022/04/14 09:32:36;;;;;;;18.47;12.70;;;;;;;-143.76;100.00;61248.72;4980279;28;20462;-73
2022/04/14 09:35:06;;;;;;;15.93;13.53;;;;;;;-143.76;100.00;61248.72;4977882;28;20847;-72
2022/04/14 09:37:33;;;;;;;16.63;12.57;;;;;;;-143.76;100.00;61248.72;4975700;28;20462;-72
2022/04/14 09:40:08;;;;;;;17.80;13.10;;;;;;;-143.76;100.00;61248.72;4977213;28;20668;-72
2022/04/14 09:42:42;;;;;;;20.40;13.00;;;;;;;-143.76;100.00;61248.72;4979019;28;20945;-72
2022/04/14 09:45:21;;;;;;;17.63;13.00;;;;;;;-143.76;100.00;61248.72;4977734;28;20501;-72
2022/04/14 09:47:51;;;;;;;19.27;13.87;;;;;;;-143.76;100.00;61248.72;4977357;28;21246;-73
2022/04/14 09:50:31;;;;;;;16.97;14.53;;;;;;;-143.76;100.00;61248.72;4977691;28;20486;-73
2022/04/14 09:53:07;;;;;;;15.47;13.83;;;;;;;-143.76;100.00;61248.72;4961082;28;20461;-72
2022/04/14 09:55:41;;;;;;;21.20;13.50;;;;;;;-143.76;100.00;61248.72;4976100;28;20835;-72
2022/04/14 09:58:17;;;;;;;14.97;12.97;;;;;;;-143.76;100.00;61248.72;4977549;28;20597;-73
2022/04/14 10:00:50;;;;;;;14.77;12.47;;;;;;;-143.76;100.00;61248.72;4978611;28;20463;-73
2022/04/14 10:03:20;;;;;;;15.97;13.50;;;;;;;-143.76;100.00;61248.72;4979980;28;20840;-74
2022/04/14 10:05:49;;;;;;;17.00;13.30;;;;;;;-143.76;100.00;61248.72;4976489;28;20488;-75
2022/04/14 10:08:16;;;;;;;15.43;11.97;;;;;;;-143.76;100.00;61248.72;4978810;28;20599;-72
2022/04/14 10:10:46;;;;;;;16.83;12.97;;;;;;;-143.76;100.00;61248.72;4978104;28;20458;-73
2022/04/14 10:13:14;;;;;;;21.80;13.90;;;;;;;-143.76;100.00;61248.72;4979237;28;20709;-72
2022/04/14 10:15:42;;;;;;;18.60;15.37;;;;;;;-143.76;100.00;61248.72;4977077;28;20586;-72
2022/04/14 10:18:13;;;;;;;16.30;14.47;;;;;;;-143.76;100.00;61248.72;4975575;28;20602;-72
2022/04/14 10:20:44;;;;;;;16.60;13.30;;;;;;;-143.76;100.00;61248.72;4977724;28;20460;-72
2022/04/14 10:23:12;;;;;;;15.80;12.63;;;;;;;-143.76;100.00;61248.72;4977593;28;20985;-72
2022/04/14 10:25:38;;;;;;;15.97;13.20;;;;;;;-143.76;100.00;61248.72;4978956;28;20480;-72
2022/04/14 10:28:07;;;;;;;18.93;12.47;;;;;;;-143.76;100.00;61248.72;4979131;28;20475;-73
2022/04/14 10:30:33;;;;;;;16.30;13.00;;;;;;;-143.76;100.00;61248.72;4982482;28;20455;-73
2022/04/14 10:32:59;;;;;;;16.97;14.53;;;;;;;-143.76;100.00;61248.72;4982506;28;20458;-73
2022/04/14 10:35:27;;;;;;;14.83;13.10;;;;;;;-143.76;100.00;61248.72;4981956;28;20219;-73
2022/04/14 10:38:03;;;;;;;15.77;12.30;;;;;;;-143.76;100.00;61248.72;4979992;28;20468;-73
2022/04/14 10:40:31;;;;;;;17.57;13.80;;;;;;;-143.76;100.00;61248.72;4979603;28;20816;-73
2022/04/14 10:42:58;;;;;;;15.53;13.90;;;;;;;-143.76;100.00;61248.72;4980911;28;20471;-73
2022/04/14 10:45:24;;;;;;;18.57;15.07;;;;;;;-143.76;100.00;61248.72;4983364;28;20583;-73
2022/04/14 10:47:49;;;;;;;17.67;14.87;;;;;;;-143.76;100.00;61248.72;4982474;28;20486;-72
2022/04/14 10:50:22;;;;;;;19.63;14.47;;;;;;;-143.76;100.00;61248.72;4981385;28;20973;-73
2022/04/14 10:53:20;;;;;;;17.03;12.97;;;;;;;-143.76;100.00;61248.72;4980865;28;20243;-74
2022/04/14 10:55:49;;;;;;;16.50;12.13;;;;;;;-143.76;100.00;61248.72;4974391;28;20466;-72
2022/04/14 10:58:27;;;;;;;24.77;15.70;;;;;;;-143.76;100.00;61248.72;4978825;28;20822;-73
2022/04/14 11:00:54;;;;;;;19.00;13.97;;;;;;;-143.76;100.00;61248.72;4982456;28;20469;-73
2022/04/14 11:03:40;;;;;;;17.60;14.13;;;;;;;-143.76;100.00;61248.72;4980027;28;20484;-72